sensor_id;sensor_type;location;lat;lon;timestamp;temperature;humidity
55828;DHT22;41758;51.992;5.890;2023-02-04T00:01:51;12.30;65.10
55828;DHT22;41758;51.992;5.890;2023-02-04T00:04:17;12.30;65.10
55828;DHT22;41758;51.992;5.890;2023-02-04T00:06:42;12.30;64.80
55828;DHT22;41758;51.992;5.890;2023-02-04T00:09:08;12.30;65.00
55828;DHT22;41758;51.992;5.890;2023-02-04T00:11:34;12.30;65.10
55828;DHT22;41758;51.992;5.890;2023-02-04T00:14:00;12.30;65.10
55828;DHT22;41758;51.992;5.890;2023-02-04T00:16:25;12.30;65.30
55828;DHT22;41758;51.992;5.890;2023-02-04T00:18:51;12.30;65.10
55828;DHT22;41758;51.992;5.890;2023-02-04T00:21:17;12.30;65.20
55828;DHT22;41758;51.992;5.890;2023-02-04T00:23:42;12.30;65.10
55828;DHT22;41758;51.992;5.890;2023-02-04T00:26:08;12.30;64.90
55828;DHT22;41758;51.992;5.890;2023-02-04T00:28:34;12.30;65.10
55828;DHT22;41758;51.992;5.890;2023-02-04T00:31:00;12.30;65.00
55828;DHT22;41758;51.992;5.890;2023-02-04T00:33:25;12.30;65.10
55828;DHT22;41758;51.992;5.890;2023-02-04T00:35:51;12.30;65.30
55828;DHT22;41758;51.992;5.890;2023-02-04T00:38:19;12.30;65.10
55828;DHT22;41758;51.992;5.890;2023-02-04T00:40:45;12.30;65.20
55828;DHT22;41758;51.992;5.890;2023-02-04T00:43:11;12.30;65.30
55828;DHT22;41758;51.992;5.890;2023-02-04T00:45:37;12.20;65.30
55828;DHT22;41758;51.992;5.890;2023-02-04T00:48:05;12.20;65.20
55828;DHT22;41758;51.992;5.890;2023-02-04T00:50:32;12.20;65.20
55828;DHT22;41758;51.992;5.890;2023-02-04T00:52:59;12.10;65.30
55828;DHT22;41758;51.992;5.890;2023-02-04T00:55:26;12.10;65.30
55828;DHT22;41758;51.992;5.890;2023-02-04T00:57:52;12.20;65.40
55828;DHT22;41758;51.992;5.890;2023-02-04T01:00:18;12.10;65.40
55828;DHT22;41758;51.992;5.890;2023-02-04T01:02:43;12.10;65.40
55828;DHT22;41758;51.992;5.890;2023-02-04T01:05:09;12.10;65.40
55828;DHT22;41758;51.992;5.890;2023-02-04T01:07:36;12.00;64.90
55828;DHT22;41758;51.992;5.890;2023-02-04T01:10:03;12.00;65.00
55828;DHT22;41758;51.992;5.890;2023-02-04T01:12:29;12.00;65.60
55828;DHT22;41758;51.992;5.890;2023-02-04T01:14:54;11.90;65.30
55828;DHT22;41758;51.992;5.890;2023-02-04T01:17:20;11.90;65.00
55828;DHT22;41758;51.992;5.890;2023-02-04T01:19:46;11.90;65.10
55828;DHT22;41758;51.992;5.890;2023-02-04T01:22:12;11.80;65.40
55828;DHT22;41758;51.992;5.890;2023-02-04T01:24:38;11.80;65.40
55828;DHT22;41758;51.992;5.890;2023-02-04T01:27:22;11.80;65.80
55828;DHT22;41758;51.992;5.890;2023-02-04T01:29:48;11.70;65.70
55828;DHT22;41758;51.992;5.890;2023-02-04T01:32:15;11.70;65.90
55828;DHT22;41758;51.992;5.890;2023-02-04T01:34:41;11.70;65.90
55828;DHT22;41758;51.992;5.890;2023-02-04T01:37:07;11.70;66.50
55828;DHT22;41758;51.992;5.890;2023-02-04T01:39:32;11.80;66.30
55828;DHT22;41758;51.992;5.890;2023-02-04T01:41:58;11.70;65.80
55828;DHT22;41758;51.992;5.890;2023-02-04T01:44:26;11.70;66.10
55828;DHT22;41758;51.992;5.890;2023-02-04T01:46:53;11.80;66.20
55828;DHT22;41758;51.992;5.890;2023-02-04T01:49:19;11.80;66.20
55828;DHT22;41758;51.992;5.890;2023-02-04T01:51:45;11.80;66.00
55828;DHT22;41758;51.992;5.890;2023-02-04T01:54:11;11.80;65.70
55828;DHT22;41758;51.992;5.890;2023-02-04T01:56:39;11.80;66.00
55828;DHT22;41758;51.992;5.890;2023-02-04T01:59:12;11.80;66.30
55828;DHT22;41758;51.992;5.890;2023-02-04T02:01:44;11.80;66.30
55828;DHT22;41758;51.992;5.890;2023-02-04T02:04:14;11.80;66.20
55828;DHT22;41758;51.992;5.890;2023-02-04T02:06:44;11.80;66.10
55828;DHT22;41758;51.992;5.890;2023-02-04T02:09:12;11.80;66.40
55828;DHT22;41758;51.992;5.890;2023-02-04T02:11:38;11.80;66.30
55828;DHT22;41758;51.992;5.890;2023-02-04T02:14:04;11.80;66.30
55828;DHT22;41758;51.992;5.890;2023-02-04T02:16:30;11.80;66.30
55828;DHT22;41758;51.992;5.890;2023-02-04T02:18:56;11.80;66.00
55828;DHT22;41758;51.992;5.890;2023-02-04T02:21:32;11.80;65.70
55828;DHT22;41758;51.992;5.890;2023-02-04T02:23:59;11.70;65.90
55828;DHT22;41758;51.992;5.890;2023-02-04T02:26:27;11.70;65.80
55828;DHT22;41758;51.992;5.890;2023-02-04T02:28:54;11.60;66.20
55828;DHT22;41758;51.992;5.890;2023-02-04T02:31:21;11.60;66.40
55828;DHT22;41758;51.992;5.890;2023-02-04T02:33:47;11.60;66.00
55828;DHT22;41758;51.992;5.890;2023-02-04T02:36:15;11.60;66.20
55828;DHT22;41758;51.992;5.890;2023-02-04T02:38:42;11.50;66.20
55828;DHT22;41758;51.992;5.890;2023-02-04T02:41:08;11.50;65.90
55828;DHT22;41758;51.992;5.890;2023-02-04T02:43:35;11.50;66.00
55828;DHT22;41758;51.992;5.890;2023-02-04T02:46:03;11.40;66.10
55828;DHT22;41758;51.992;5.890;2023-02-04T02:48:31;11.40;66.40
55828;DHT22;41758;51.992;5.890;2023-02-04T02:50:56;11.40;66.30
55828;DHT22;41758;51.992;5.890;2023-02-04T02:53:22;11.40;66.30
55828;DHT22;41758;51.992;5.890;2023-02-04T02:55:48;11.40;66.00
55828;DHT22;41758;51.992;5.890;2023-02-04T02:58:25;11.30;66.50
55828;DHT22;41758;51.992;5.890;2023-02-04T03:00:53;11.30;66.50
55828;DHT22;41758;51.992;5.890;2023-02-04T03:03:23;11.30;66.50
55828;DHT22;41758;51.992;5.890;2023-02-04T03:05:54;11.30;66.60
55828;DHT22;41758;51.992;5.890;2023-02-04T03:08:21;11.20;66.60
55828;DHT22;41758;51.992;5.890;2023-02-04T03:10:47;11.20;66.60
55828;DHT22;41758;51.992;5.890;2023-02-04T03:13:14;11.20;66.40
55828;DHT22;41758;51.992;5.890;2023-02-04T03:15:42;11.10;65.90
55828;DHT22;41758;51.992;5.890;2023-02-04T03:18:09;11.10;66.00
55828;DHT22;41758;51.992;5.890;2023-02-04T03:20:36;11.00;66.10
55828;DHT22;41758;51.992;5.890;2023-02-04T03:23:02;11.00;66.30
55828;DHT22;41758;51.992;5.890;2023-02-04T03:25:28;10.90;66.40
55828;DHT22;41758;51.992;5.890;2023-02-04T03:27:57;10.90;66.70
55828;DHT22;41758;51.992;5.890;2023-02-04T03:30:24;10.90;67.00
55828;DHT22;41758;51.992;5.890;2023-02-04T03:32:50;10.80;66.80
55828;DHT22;41758;51.992;5.890;2023-02-04T03:35:16;10.80;66.80
55828;DHT22;41758;51.992;5.890;2023-02-04T03:37:42;10.80;67.10
55828;DHT22;41758;51.992;5.890;2023-02-04T03:40:09;10.80;67.10
55828;DHT22;41758;51.992;5.890;2023-02-04T03:42:34;10.70;67.70
55828;DHT22;41758;51.992;5.890;2023-02-04T03:45:00;10.70;67.80
55828;DHT22;41758;51.992;5.890;2023-02-04T03:47:26;10.70;67.90
55828;DHT22;41758;51.992;5.890;2023-02-04T03:49:52;10.70;67.90
55828;DHT22;41758;51.992;5.890;2023-02-04T03:52:17;10.70;67.90
55828;DHT22;41758;51.992;5.890;2023-02-04T03:54:45;10.70;68.20
55828;DHT22;41758;51.992;5.890;2023-02-04T03:57:10;10.80;68.40
55828;DHT22;41758;51.992;5.890;2023-02-04T03:59:36;10.70;68.10
55828;DHT22;41758;51.992;5.890;2023-02-04T04:02:02;10.70;68.00
55828;DHT22;41758;51.992;5.890;2023-02-04T04:04:28;10.70;67.70
55828;DHT22;41758;51.992;5.890;2023-02-04T04:06:54;10.70;67.60
55828;DHT22;41758;51.992;5.890;2023-02-04T04:09:19;10.70;67.90
55828;DHT22;41758;51.992;5.890;2023-02-04T04:11:45;10.60;67.80
55828;DHT22;41758;51.992;5.890;2023-02-04T04:14:11;10.60;67.90
55828;DHT22;41758;51.992;5.890;2023-02-04T04:16:37;10.60;68.10
55828;DHT22;41758;51.992;5.890;2023-02-04T04:19:02;10.60;68.80
55828;DHT22;41758;51.992;5.890;2023-02-04T04:21:28;10.60;68.60
55828;DHT22;41758;51.992;5.890;2023-02-04T04:23:54;10.60;69.10
55828;DHT22;41758;51.992;5.890;2023-02-04T04:26:20;10.60;69.10
55828;DHT22;41758;51.992;5.890;2023-02-04T04:28:46;10.60;69.10
55828;DHT22;41758;51.992;5.890;2023-02-04T04:31:12;10.60;69.30
55828;DHT22;41758;51.992;5.890;2023-02-04T04:33:37;10.70;69.30
55828;DHT22;41758;51.992;5.890;2023-02-04T04:36:04;10.70;68.90
55828;DHT22;41758;51.992;5.890;2023-02-04T04:38:30;10.70;69.00
55828;DHT22;41758;51.992;5.890;2023-02-04T04:40:56;10.70;69.00
55828;DHT22;41758;51.992;5.890;2023-02-04T04:43:21;10.70;69.00
55828;DHT22;41758;51.992;5.890;2023-02-04T04:45:47;10.70;69.30
55828;DHT22;41758;51.992;5.890;2023-02-04T04:48:13;10.60;69.20
55828;DHT22;41758;51.992;5.890;2023-02-04T04:50:39;10.70;69.20
55828;DHT22;41758;51.992;5.890;2023-02-04T04:53:04;10.70;68.40
55828;DHT22;41758;51.992;5.890;2023-02-04T04:55:30;10.70;68.90
55828;DHT22;41758;51.992;5.890;2023-02-04T04:57:57;10.60;68.90
55828;DHT22;41758;51.992;5.890;2023-02-04T05:00:22;10.60;69.00
55828;DHT22;41758;51.992;5.890;2023-02-04T05:02:48;10.70;69.00
55828;DHT22;41758;51.992;5.890;2023-02-04T05:05:16;10.70;69.20
55828;DHT22;41758;51.992;5.890;2023-02-04T05:07:42;10.80;69.30
55828;DHT22;41758;51.992;5.890;2023-02-04T05:10:08;10.80;69.40
55828;DHT22;41758;51.992;5.890;2023-02-04T05:12:34;10.80;69.50
55828;DHT22;41758;51.992;5.890;2023-02-04T05:14:59;10.80;69.50
55828;DHT22;41758;51.992;5.890;2023-02-04T05:17:25;10.90;69.40
55828;DHT22;41758;51.992;5.890;2023-02-04T05:19:51;10.90;69.40
55828;DHT22;41758;51.992;5.890;2023-02-04T05:22:16;11.00;69.30
55828;DHT22;41758;51.992;5.890;2023-02-04T05:24:42;11.00;69.30
55828;DHT22;41758;51.992;5.890;2023-02-04T05:27:08;11.10;69.10
55828;DHT22;41758;51.992;5.890;2023-02-04T05:29:33;11.10;68.70
55828;DHT22;41758;51.992;5.890;2023-02-04T05:31:59;11.10;68.70
55828;DHT22;41758;51.992;5.890;2023-02-04T05:34:25;11.10;68.60
55828;DHT22;41758;51.992;5.890;2023-02-04T05:36:50;11.10;68.60
55828;DHT22;41758;51.992;5.890;2023-02-04T05:39:16;11.10;68.40
55828;DHT22;41758;51.992;5.890;2023-02-04T05:41:42;11.20;68.30
55828;DHT22;41758;51.992;5.890;2023-02-04T05:44:08;11.20;68.10
55828;DHT22;41758;51.992;5.890;2023-02-04T05:46:34;11.10;68.40
55828;DHT22;41758;51.992;5.890;2023-02-04T05:49:00;11.10;68.20
55828;DHT22;41758;51.992;5.890;2023-02-04T05:51:26;11.10;68.10
55828;DHT22;41758;51.992;5.890;2023-02-04T05:53:52;11.10;68.30
55828;DHT22;41758;51.992;5.890;2023-02-04T05:56:17;11.10;68.60
55828;DHT22;41758;51.992;5.890;2023-02-04T05:58:43;11.10;68.70
55828;DHT22;41758;51.992;5.890;2023-02-04T06:01:09;11.10;68.70
55828;DHT22;41758;51.992;5.890;2023-02-04T06:03:35;11.10;68.60
55828;DHT22;41758;51.992;5.890;2023-02-04T06:06:00;11.10;68.10
55828;DHT22;41758;51.992;5.890;2023-02-04T06:08:26;11.10;67.50
55828;DHT22;41758;51.992;5.890;2023-02-04T06:10:52;11.10;67.40
55828;DHT22;41758;51.992;5.890;2023-02-04T06:13:17;11.10;67.30
55828;DHT22;41758;51.992;5.890;2023-02-04T06:15:43;11.10;68.00
55828;DHT22;41758;51.992;5.890;2023-02-04T06:18:09;11.10;68.30
55828;DHT22;41758;51.992;5.890;2023-02-04T06:20:35;11.00;68.30
55828;DHT22;41758;51.992;5.890;2023-02-04T06:23:00;11.10;68.30
55828;DHT22;41758;51.992;5.890;2023-02-04T06:25:26;11.00;68.30
55828;DHT22;41758;51.992;5.890;2023-02-04T06:27:52;11.00;68.20
55828;DHT22;41758;51.992;5.890;2023-02-04T06:30:17;11.00;68.00
55828;DHT22;41758;51.992;5.890;2023-02-04T06:32:43;11.00;68.40
55828;DHT22;41758;51.992;5.890;2023-02-04T06:35:10;11.00;68.10
55828;DHT22;41758;51.992;5.890;2023-02-04T06:37:37;11.00;68.40
55828;DHT22;41758;51.992;5.890;2023-02-04T06:40:04;11.00;68.60
55828;DHT22;41758;51.992;5.890;2023-02-04T06:42:30;11.10;68.70
55828;DHT22;41758;51.992;5.890;2023-02-04T06:44:56;11.10;68.70
55828;DHT22;41758;51.992;5.890;2023-02-04T06:47:21;11.10;68.70
55828;DHT22;41758;51.992;5.890;2023-02-04T06:49:47;11.10;68.60
55828;DHT22;41758;51.992;5.890;2023-02-04T06:52:13;11.10;68.30
55828;DHT22;41758;51.992;5.890;2023-02-04T06:54:38;11.10;68.10
55828;DHT22;41758;51.992;5.890;2023-02-04T06:57:04;11.10;68.40
55828;DHT22;41758;51.992;5.890;2023-02-04T06:59:34;11.10;68.60
55828;DHT22;41758;51.992;5.890;2023-02-04T07:02:00;11.10;68.80
55828;DHT22;41758;51.992;5.890;2023-02-04T07:04:26;11.20;68.90
55828;DHT22;41758;51.992;5.890;2023-02-04T07:06:51;11.20;68.90
55828;DHT22;41758;51.992;5.890;2023-02-04T07:09:17;11.20;68.90
55828;DHT22;41758;51.992;5.890;2023-02-04T07:11:43;11.20;68.70
55828;DHT22;41758;51.992;5.890;2023-02-04T07:14:08;11.30;68.70
55828;DHT22;41758;51.992;5.890;2023-02-04T07:16:35;11.30;68.60
55828;DHT22;41758;51.992;5.890;2023-02-04T07:19:01;11.30;68.50
55828;DHT22;41758;51.992;5.890;2023-02-04T07:21:27;11.30;68.50
55828;DHT22;41758;51.992;5.890;2023-02-04T07:23:52;11.30;68.30
55828;DHT22;41758;51.992;5.890;2023-02-04T07:26:18;11.30;68.40
55828;DHT22;41758;51.992;5.890;2023-02-04T07:28:44;11.40;68.40
55828;DHT22;41758;51.992;5.890;2023-02-04T07:31:10;11.30;68.40
55828;DHT22;41758;51.992;5.890;2023-02-04T07:33:36;11.30;68.40
55828;DHT22;41758;51.992;5.890;2023-02-04T07:36:02;11.30;68.40
55828;DHT22;41758;51.992;5.890;2023-02-04T07:38:27;11.30;68.40
55828;DHT22;41758;51.992;5.890;2023-02-04T07:40:53;11.40;68.30
55828;DHT22;41758;51.992;5.890;2023-02-04T07:43:19;11.40;68.30
55828;DHT22;41758;51.992;5.890;2023-02-04T07:45:44;11.40;68.40
55828;DHT22;41758;51.992;5.890;2023-02-04T07:48:10;11.40;68.30
55828;DHT22;41758;51.992;5.890;2023-02-04T07:50:36;11.40;68.40
55828;DHT22;41758;51.992;5.890;2023-02-04T07:53:02;11.40;68.20
55828;DHT22;41758;51.992;5.890;2023-02-04T07:55:28;11.40;68.40
55828;DHT22;41758;51.992;5.890;2023-02-04T07:57:54;11.50;68.30
55828;DHT22;41758;51.992;5.890;2023-02-04T08:00:20;11.50;68.40
55828;DHT22;41758;51.992;5.890;2023-02-04T08:02:46;11.50;68.40
55828;DHT22;41758;51.992;5.890;2023-02-04T08:05:12;11.50;68.40
55828;DHT22;41758;51.992;5.890;2023-02-04T08:07:38;11.60;68.30
55828;DHT22;41758;51.992;5.890;2023-02-04T08:10:05;11.60;68.30
55828;DHT22;41758;51.992;5.890;2023-02-04T08:12:31;11.60;68.20
55828;DHT22;41758;51.992;5.890;2023-02-04T08:14:57;11.60;68.10
55828;DHT22;41758;51.992;5.890;2023-02-04T08:17:23;11.60;68.30
55828;DHT22;41758;51.992;5.890;2023-02-04T08:19:49;11.70;68.20
55828;DHT22;41758;51.992;5.890;2023-02-04T08:22:15;11.70;68.20
55828;DHT22;41758;51.992;5.890;2023-02-04T08:24:41;11.70;68.20
55828;DHT22;41758;51.992;5.890;2023-02-04T08:27:06;11.80;68.20
55828;DHT22;41758;51.992;5.890;2023-02-04T08:29:32;11.80;68.10
55828;DHT22;41758;51.992;5.890;2023-02-04T08:31:58;11.80;68.10
55828;DHT22;41758;51.992;5.890;2023-02-04T08:34:24;11.80;68.00
55828;DHT22;41758;51.992;5.890;2023-02-04T08:36:49;11.90;68.10
55828;DHT22;41758;51.992;5.890;2023-02-04T08:39:15;11.90;68.00
55828;DHT22;41758;51.992;5.890;2023-02-04T08:41:41;11.90;68.10
55828;DHT22;41758;51.992;5.890;2023-02-04T08:44:10;11.90;68.10
55828;DHT22;41758;51.992;5.890;2023-02-04T08:46:35;12.00;68.00
55828;DHT22;41758;51.992;5.890;2023-02-04T08:49:01;12.00;68.00
55828;DHT22;41758;51.992;5.890;2023-02-04T08:51:30;12.00;67.90
55828;DHT22;41758;51.992;5.890;2023-02-04T08:53:55;12.10;67.90
55828;DHT22;41758;51.992;5.890;2023-02-04T08:56:21;12.10;67.80
55828;DHT22;41758;51.992;5.890;2023-02-04T08:58:47;12.10;67.70
55828;DHT22;41758;51.992;5.890;2023-02-04T09:01:13;12.10;67.70
55828;DHT22;41758;51.992;5.890;2023-02-04T09:03:39;12.20;67.60
55828;DHT22;41758;51.992;5.890;2023-02-04T09:06:05;12.20;67.60
55828;DHT22;41758;51.992;5.890;2023-02-04T09:08:35;12.30;67.60
55828;DHT22;41758;51.992;5.890;2023-02-04T09:11:00;12.30;67.50
55828;DHT22;41758;51.992;5.890;2023-02-04T09:13:26;12.30;67.50
55828;DHT22;41758;51.992;5.890;2023-02-04T09:15:52;12.30;67.60
55828;DHT22;41758;51.992;5.890;2023-02-04T09:18:18;12.40;67.60
55828;DHT22;41758;51.992;5.890;2023-02-04T09:20:47;12.40;67.50
55828;DHT22;41758;51.992;5.890;2023-02-04T09:23:16;12.50;67.40
55828;DHT22;41758;51.992;5.890;2023-02-04T09:25:43;12.60;67.30
55828;DHT22;41758;51.992;5.890;2023-02-04T09:28:10;12.70;67.10
55828;DHT22;41758;51.992;5.890;2023-02-04T09:30:38;12.70;67.10
55828;DHT22;41758;51.992;5.890;2023-02-04T09:33:07;12.80;66.90
55828;DHT22;41758;51.992;5.890;2023-02-04T09:35:33;12.80;66.90
55828;DHT22;41758;51.992;5.890;2023-02-04T09:37:59;12.80;66.80
55828;DHT22;41758;51.992;5.890;2023-02-04T09:40:28;12.80;66.70
55828;DHT22;41758;51.992;5.890;2023-02-04T09:42:56;12.80;66.50
55828;DHT22;41758;51.992;5.890;2023-02-04T09:45:26;12.80;66.50
55828;DHT22;41758;51.992;5.890;2023-02-04T09:47:55;12.70;66.50
55828;DHT22;41758;51.992;5.890;2023-02-04T09:50:23;12.70;66.70
55828;DHT22;41758;51.992;5.890;2023-02-04T09:52:52;12.60;66.70
55828;DHT22;41758;51.992;5.890;2023-02-04T09:55:20;12.60;66.90
55828;DHT22;41758;51.992;5.890;2023-02-04T09:57:47;12.60;67.30
55828;DHT22;41758;51.992;5.890;2023-02-04T10:02:44;12.70;67.00
55828;DHT22;41758;51.992;5.890;2023-02-04T10:05:20;12.80;67.10
55828;DHT22;41758;51.992;5.890;2023-02-04T10:07:48;12.90;66.90
55828;DHT22;41758;51.992;5.890;2023-02-04T10:10:16;13.00;66.70
55828;DHT22;41758;51.992;5.890;2023-02-04T10:12:43;13.10;66.80
55828;DHT22;41758;51.992;5.890;2023-02-04T10:15:23;13.20;66.60
55828;DHT22;41758;51.992;5.890;2023-02-04T10:18:01;13.30;66.30
55828;DHT22;41758;51.992;5.890;2023-02-04T10:20:28;13.30;65.70
55828;DHT22;41758;51.992;5.890;2023-02-04T10:22:55;13.30;65.80
55828;DHT22;41758;51.992;5.890;2023-02-04T10:25:22;13.30;65.90
55828;DHT22;41758;51.992;5.890;2023-02-04T10:27:55;13.40;65.30
55828;DHT22;41758;51.992;5.890;2023-02-04T10:30:24;13.50;65.10
55828;DHT22;41758;51.992;5.890;2023-02-04T10:32:50;13.60;65.50
55828;DHT22;41758;51.992;5.890;2023-02-04T10:35:18;13.60;65.10
55828;DHT22;41758;51.992;5.890;2023-02-04T10:37:44;13.70;65.30
55828;DHT22;41758;51.992;5.890;2023-02-04T10:40:30;13.80;65.40
55828;DHT22;41758;51.992;5.890;2023-02-04T10:42:56;13.80;64.90
55828;DHT22;41758;51.992;5.890;2023-02-04T10:45:27;13.80;64.70
55828;DHT22;41758;51.992;5.890;2023-02-04T10:47:54;13.80;64.60
55828;DHT22;41758;51.992;5.890;2023-02-04T10:50:22;13.80;64.80
55828;DHT22;41758;51.992;5.890;2023-02-04T10:52:59;13.80;64.70
55828;DHT22;41758;51.992;5.890;2023-02-04T10:55:48;13.80;64.20
55828;DHT22;41758;51.992;5.890;2023-02-04T10:58:18;13.90;64.60
55828;DHT22;41758;51.992;5.890;2023-02-04T11:00:44;14.10;64.30
55828;DHT22;41758;51.992;5.890;2023-02-04T11:03:23;14.30;63.80
55828;DHT22;41758;51.992;5.890;2023-02-04T11:05:50;14.40;63.70
55828;DHT22;41758;51.992;5.890;2023-02-04T11:08:25;14.50;63.00
55828;DHT22;41758;51.992;5.890;2023-02-04T11:11:18;14.60;63.40
55828;DHT22;41758;51.992;5.890;2023-02-04T11:18:59;14.60;62.20
55828;DHT22;41758;51.992;5.890;2023-02-04T11:24:24;14.60;62.50
55828;DHT22;41758;51.992;5.890;2023-02-04T11:27:21;14.60;62.60
55828;DHT22;41758;51.992;5.890;2023-02-04T11:29:47;14.60;62.10
55828;DHT22;41758;51.992;5.890;2023-02-04T11:32:35;14.60;61.70
55828;DHT22;41758;51.992;5.890;2023-02-04T11:37:41;14.90;62.50
55828;DHT22;41758;51.992;5.890;2023-02-04T11:40:30;14.90;62.20
55828;DHT22;41758;51.992;5.890;2023-02-04T11:45:29;15.00;61.00
55828;DHT22;41758;51.992;5.890;2023-02-04T11:47:57;15.10;61.10
55828;DHT22;41758;51.992;5.890;2023-02-04T11:50:30;15.10;60.80
55828;DHT22;41758;51.992;5.890;2023-02-04T11:52:57;15.20;61.20
55828;DHT22;41758;51.992;5.890;2023-02-04T11:55:24;15.20;60.90
55828;DHT22;41758;51.992;5.890;2023-02-04T11:57:54;15.30;60.70
55828;DHT22;41758;51.992;5.890;2023-02-04T12:00:31;15.30;60.20
55828;DHT22;41758;51.992;5.890;2023-02-04T12:03:05;15.10;59.40
55828;DHT22;41758;51.992;5.890;2023-02-04T12:05:44;15.10;57.90
55828;DHT22;41758;51.992;5.890;2023-02-04T12:11:04;14.80;59.00
55828;DHT22;41758;51.992;5.890;2023-02-04T12:13:32;14.80;60.00
55828;DHT22;41758;51.992;5.890;2023-02-04T12:16:01;15.00;60.80
55828;DHT22;41758;51.992;5.890;2023-02-04T12:18:28;15.40;60.20
55828;DHT22;41758;51.992;5.890;2023-02-04T12:20:57;15.60;58.80
55828;DHT22;41758;51.992;5.890;2023-02-04T12:23:24;15.70;58.30
55828;DHT22;41758;51.992;5.890;2023-02-04T12:25:50;15.80;58.80
55828;DHT22;41758;51.992;5.890;2023-02-04T12:28:16;15.90;59.10
55828;DHT22;41758;51.992;5.890;2023-02-04T12:30:42;16.20;58.70
55828;DHT22;41758;51.992;5.890;2023-02-04T12:33:08;16.50;58.10
55828;DHT22;41758;51.992;5.890;2023-02-04T12:35:34;16.70;57.70
55828;DHT22;41758;51.992;5.890;2023-02-04T12:38:00;16.80;56.60
55828;DHT22;41758;51.992;5.890;2023-02-04T12:40:26;16.80;56.10
55828;DHT22;41758;51.992;5.890;2023-02-04T12:42:54;16.90;55.90
55828;DHT22;41758;51.992;5.890;2023-02-04T12:45:20;16.80;54.90
55828;DHT22;41758;51.992;5.890;2023-02-04T12:47:46;16.70;54.30
55828;DHT22;41758;51.992;5.890;2023-02-04T12:50:14;16.60;55.30
55828;DHT22;41758;51.992;5.890;2023-02-04T12:52:40;16.40;55.60
55828;DHT22;41758;51.992;5.890;2023-02-04T12:55:07;16.20;56.10
55828;DHT22;41758;51.992;5.890;2023-02-04T12:57:33;16.00;56.90
55828;DHT22;41758;51.992;5.890;2023-02-04T12:59:59;15.90;56.90
55828;DHT22;41758;51.992;5.890;2023-02-04T13:02:27;15.80;56.60
55828;DHT22;41758;51.992;5.890;2023-02-04T13:04:53;15.60;55.70
55828;DHT22;41758;51.992;5.890;2023-02-04T13:07:20;15.50;57.10
55828;DHT22;41758;51.992;5.890;2023-02-04T13:09:54;15.40;57.60
55828;DHT22;41758;51.992;5.890;2023-02-04T13:12:20;15.30;58.00
55828;DHT22;41758;51.992;5.890;2023-02-04T13:14:48;15.30;58.30
55828;DHT22;41758;51.992;5.890;2023-02-04T13:17:21;15.30;58.70
55828;DHT22;41758;51.992;5.890;2023-02-04T13:19:53;15.30;58.70
55828;DHT22;41758;51.992;5.890;2023-02-04T13:22:19;15.30;58.30
55828;DHT22;41758;51.992;5.890;2023-02-04T13:24:45;15.20;57.80
55828;DHT22;41758;51.992;5.890;2023-02-04T13:27:18;15.10;57.50
55828;DHT22;41758;51.992;5.890;2023-02-04T13:29:44;15.10;57.80
55828;DHT22;41758;51.992;5.890;2023-02-04T13:32:10;15.10;57.80
55828;DHT22;41758;51.992;5.890;2023-02-04T13:35:02;15.10;56.60
55828;DHT22;41758;51.992;5.890;2023-02-04T13:37:28;15.10;58.20
55828;DHT22;41758;51.992;5.890;2023-02-04T13:39:56;15.10;58.80
55828;DHT22;41758;51.992;5.890;2023-02-04T13:42:22;15.10;58.00
55828;DHT22;41758;51.992;5.890;2023-02-04T13:44:48;15.10;58.30
55828;DHT22;41758;51.992;5.890;2023-02-04T13:47:14;15.00;58.20
55828;DHT22;41758;51.992;5.890;2023-02-04T13:49:43;14.90;58.20
55828;DHT22;41758;51.992;5.890;2023-02-04T13:52:09;14.90;57.90
55828;DHT22;41758;51.992;5.890;2023-02-04T13:54:35;14.80;57.10
55828;DHT22;41758;51.992;5.890;2023-02-04T13:57:03;14.80;58.20
55828;DHT22;41758;51.992;5.890;2023-02-04T13:59:32;14.80;58.90
55828;DHT22;41758;51.992;5.890;2023-02-04T14:02:00;14.70;57.50
55828;DHT22;41758;51.992;5.890;2023-02-04T14:04:29;14.70;58.00
55828;DHT22;41758;51.992;5.890;2023-02-04T14:06:58;14.70;56.80
55828;DHT22;41758;51.992;5.890;2023-02-04T14:09:24;14.70;57.90
55828;DHT22;41758;51.992;5.890;2023-02-04T14:11:56;14.60;57.20
55828;DHT22;41758;51.992;5.890;2023-02-04T14:14:21;14.50;56.10
55828;DHT22;41758;51.992;5.890;2023-02-04T14:16:47;14.50;58.20
55828;DHT22;41758;51.992;5.890;2023-02-04T14:19:13;14.40;56.70
55828;DHT22;41758;51.992;5.890;2023-02-04T14:21:39;14.40;58.30
55828;DHT22;41758;51.992;5.890;2023-02-04T14:24:05;14.30;58.30
55828;DHT22;41758;51.992;5.890;2023-02-04T14:26:31;14.30;58.40
55828;DHT22;41758;51.992;5.890;2023-02-04T14:28:56;14.20;58.90
55828;DHT22;41758;51.992;5.890;2023-02-04T14:31:22;14.20;59.30
55828;DHT22;41758;51.992;5.890;2023-02-04T14:33:48;14.10;59.30
55828;DHT22;41758;51.992;5.890;2023-02-04T14:36:14;14.10;59.40
55828;DHT22;41758;51.992;5.890;2023-02-04T14:38:40;14.10;59.30
55828;DHT22;41758;51.992;5.890;2023-02-04T14:41:06;14.00;59.00
55828;DHT22;41758;51.992;5.890;2023-02-04T14:43:31;14.00;59.80
55828;DHT22;41758;51.992;5.890;2023-02-04T14:46:03;14.00;58.10
55828;DHT22;41758;51.992;5.890;2023-02-04T14:48:29;13.90;59.10
55828;DHT22;41758;51.992;5.890;2023-02-04T14:50:55;13.90;59.10
55828;DHT22;41758;51.992;5.890;2023-02-04T14:53:21;14.00;59.00
55828;DHT22;41758;51.992;5.890;2023-02-04T14:55:46;13.90;58.60
55828;DHT22;41758;51.992;5.890;2023-02-04T14:58:12;13.90;58.80
55828;DHT22;41758;51.992;5.890;2023-02-04T15:00:38;13.90;58.90
55828;DHT22;41758;51.992;5.890;2023-02-04T15:03:03;13.80;59.20
55828;DHT22;41758;51.992;5.890;2023-02-04T15:05:29;13.80;58.50
55828;DHT22;41758;51.992;5.890;2023-02-04T15:07:55;13.80;59.50
55828;DHT22;41758;51.992;5.890;2023-02-04T15:10:20;13.80;59.80
55828;DHT22;41758;51.992;5.890;2023-02-04T15:12:47;13.80;58.90
55828;DHT22;41758;51.992;5.890;2023-02-04T15:15:16;13.80;58.70
55828;DHT22;41758;51.992;5.890;2023-02-04T15:17:42;13.80;59.20
55828;DHT22;41758;51.992;5.890;2023-02-04T15:20:13;13.80;58.80
55828;DHT22;41758;51.992;5.890;2023-02-04T15:22:42;13.90;59.00
55828;DHT22;41758;51.992;5.890;2023-02-04T15:25:51;13.90;59.60
55828;DHT22;41758;51.992;5.890;2023-02-04T15:28:27;14.00;59.50
55828;DHT22;41758;51.992;5.890;2023-02-04T15:31:11;14.00;60.30
55828;DHT22;41758;51.992;5.890;2023-02-04T15:34:10;14.00;60.30
55828;DHT22;41758;51.992;5.890;2023-02-04T15:36:36;14.00;59.80
55828;DHT22;41758;51.992;5.890;2023-02-04T15:42:47;14.00;60.30
55828;DHT22;41758;51.992;5.890;2023-02-04T15:45:36;14.00;60.30
55828;DHT22;41758;51.992;5.890;2023-02-04T15:48:44;14.00;60.00
55828;DHT22;41758;51.992;5.890;2023-02-04T15:51:54;14.00;60.00
55828;DHT22;41758;51.992;5.890;2023-02-04T15:54:32;14.00;60.10
55828;DHT22;41758;51.992;5.890;2023-02-04T15:57:01;14.00;60.50